createdAt,value
2018-03-01T00:00:23.221Z,61.69
2018-03-01T00:02:51.696Z,61.28
2018-03-01T00:05:20.707Z,61.55
2018-03-01T00:07:49.696Z,61.24
2018-03-01T00:10:18.453Z,61.30
2018-03-01T00:12:47.284Z,61.93
2018-03-01T00:15:16.699Z,62.11
2018-03-01T00:17:45.303Z,62.16
2018-03-01T00:20:14.060Z,62.16
2018-03-01T00:22:42.870Z,62.07
2018-03-01T00:25:11.587Z,62.16
2018-03-01T00:27:40.267Z,62.21
2018-03-01T00:30:09.293Z,62.31
2018-03-01T00:32:37.867Z,62.42
2018-03-01T00:35:08.112Z,61.94
2018-03-01T00:37:36.925Z,62.67
2018-03-01T00:40:06.029Z,62.79
2018-03-01T00:42:34.483Z,62.36
2018-03-01T00:45:02.996Z,62.78
2018-03-01T00:47:31.546Z,62.69
2018-03-01T00:50:00.303Z,63.23
2018-03-01T00:52:28.987Z,62.67
2018-03-01T00:54:57.598Z,63.05
2018-03-01T00:57:26.078Z,62.93
2018-03-01T00:59:54.812Z,63.35
2018-03-01T01:02:23.701Z,62.93
2018-03-01T01:04:52.251Z,63.77
2018-03-01T01:07:20.936Z,63.28
2018-03-01T01:09:49.523Z,63.13
2018-03-01T01:12:18.343Z,63.29
2018-03-01T01:14:46.790Z,63.81
2018-03-01T01:17:15.439Z,63.71
2018-03-01T01:19:44.105Z,63.33
2018-03-01T01:22:12.796Z,63.75
2018-03-01T01:24:41.644Z,64.13
2018-03-01T01:27:10.166Z,64.21
2018-03-01T01:29:38.791Z,64.62
2018-03-01T01:32:07.271Z,64.54
2018-03-01T01:34:35.956Z,64.43
2018-03-01T01:37:04.491Z,64.45
2018-03-01T01:39:32.938Z,64.66
2018-03-01T01:42:01.367Z,64.87
2018-03-01T01:44:30.723Z,64.30
2018-03-01T01:46:59.220Z,64.66
2018-03-01T01:49:28.159Z,64.94
2018-03-01T01:51:57.012Z,65.34
2018-03-01T01:54:25.750Z,64.96
2018-03-01T01:56:54.198Z,65.32
2018-03-01T01:59:22.689Z,64.73
2018-03-01T02:01:51.203Z,65.25
2018-03-01T02:04:19.780Z,65.50
2018-03-01T02:06:48.511Z,65.30
2018-03-01T02:09:16.950Z,65.49
2018-03-01T02:11:45.426Z,65.13
2018-03-01T02:14:13.890Z,65.49
2018-03-01T02:16:42.494Z,65.76
2018-03-01T02:19:11.331Z,65.18
2018-03-01T02:21:39.839Z,64.89
2018-03-01T02:24:08.294Z,65.56
2018-03-01T02:26:36.735Z,65.68
2018-03-01T02:29:05.219Z,66.07
2018-03-01T02:31:33.864Z,66.18
2018-03-01T02:34:02.605Z,66.37
2018-03-01T02:36:33.668Z,65.73
2018-03-01T02:39:02.104Z,65.57
2018-03-01T02:41:30.580Z,66.23
2018-03-01T02:43:59.165Z,66.24
2018-03-01T02:46:27.776Z,65.64
2018-03-01T02:48:56.431Z,66.46
2018-03-01T02:51:24.864Z,66.64
2018-03-01T02:53:53.329Z,66.83
2018-03-01T02:56:21.843Z,67.07
2018-03-01T02:58:50.251Z,66.51
2018-03-01T03:01:18.706Z,67.35
2018-03-01T03:03:47.227Z,67.28
2018-03-01T03:06:15.770Z,68.00
2018-03-01T03:08:44.150Z,67.71
2018-03-01T03:11:12.690Z,67.97
2018-03-01T03:13:41.148Z,67.97
2018-03-01T03:16:09.687Z,67.86
2018-03-01T03:18:38.333Z,68.24
2018-03-01T03:21:06.772Z,68.09
2018-03-01T03:23:35.285Z,68.08
2018-03-01T03:26:03.781Z,67.45
2018-03-01T03:28:32.242Z,67.97
2018-03-01T03:31:00.788Z,68.20
2018-03-01T03:33:29.414Z,67.66
2018-03-01T03:35:57.958Z,68.12
2018-03-01T03:38:26.647Z,68.30
2018-03-01T03:40:55.262Z,68.78
2018-03-01T03:43:23.811Z,68.28
2018-03-01T03:45:52.543Z,68.85
2018-03-01T03:48:21.007Z,68.99
2018-03-01T03:50:49.820Z,69.39
2018-03-01T03:53:18.247Z,69.55
2018-03-01T03:55:46.674Z,70.18
2018-03-01T03:58:15.106Z,69.68
2018-03-01T04:00:43.971Z,70.23
2018-03-01T04:03:22.254Z,70.14
2018-03-01T04:05:57.917Z,70.81
2018-03-01T04:08:26.387Z,71.13
2018-03-01T04:10:54.885Z,71.56
2018-03-01T04:13:23.521Z,71.67
2018-03-01T04:15:52.247Z,71.78
2018-03-01T04:18:20.891Z,71.77
2018-03-01T04:20:49.443Z,71.73
2018-03-01T04:23:18.222Z,71.79
2018-03-01T04:25:46.774Z,71.39
2018-03-01T04:28:15.411Z,72.05
2018-03-01T04:30:44.147Z,72.49
2018-03-01T04:33:12.600Z,72.77
2018-03-01T04:35:41.330Z,72.48
2018-03-01T04:38:09.956Z,72.81
2018-03-01T04:40:38.675Z,73.09
2018-03-01T04:43:07.119Z,72.62
2018-03-01T04:45:35.647Z,73.00
2018-03-01T04:48:04.084Z,72.94
2018-03-01T04:50:32.810Z,73.14
2018-03-01T04:53:01.320Z,73.40
2018-03-01T04:55:29.767Z,73.58
2018-03-01T04:57:58.641Z,73.58
2018-03-01T05:03:22.411Z,73.37
2018-03-01T05:05:51.677Z,73.24
2018-03-01T05:08:21.990Z,73.62
2018-03-01T05:10:51.820Z,73.62
2018-03-01T05:13:21.477Z,74.02
2018-03-01T05:15:51.204Z,73.75
2018-03-01T05:18:21.030Z,73.76
2018-03-01T05:20:49.648Z,74.17
2018-03-01T05:23:18.610Z,74.35
2018-03-01T05:25:47.324Z,74.54
2018-03-01T05:28:15.664Z,74.60
2018-03-01T05:30:44.078Z,74.67
2018-03-01T05:33:12.351Z,74.35
2018-03-01T05:35:40.662Z,74.47
2018-03-01T05:38:08.945Z,74.75
2018-03-01T05:40:37.991Z,74.29
2018-03-01T05:43:06.581Z,74.18
2018-03-01T05:45:34.985Z,74.62
2018-03-01T05:48:03.972Z,74.70
2018-03-01T05:50:34.074Z,73.84
2018-03-01T05:53:02.723Z,74.67
2018-03-01T05:55:31.062Z,74.57
2018-03-01T05:57:59.426Z,74.61
2018-03-01T06:00:27.761Z,74.83
2018-03-01T06:02:56.295Z,74.77
2018-03-01T06:05:24.611Z,74.42
2018-03-01T06:07:53.120Z,73.89
2018-03-01T06:10:21.502Z,74.57
2018-03-01T06:12:49.987Z,74.42
2018-03-01T06:15:18.527Z,73.81
2018-03-01T06:17:46.851Z,73.28
2018-03-01T06:20:15.559Z,74.02
2018-03-01T06:22:43.952Z,74.02
2018-03-01T06:25:12.278Z,73.99
2018-03-01T06:27:40.702Z,73.39
2018-03-01T06:30:09.254Z,73.17
2018-03-01T06:32:37.584Z,72.52
2018-03-01T06:35:05.955Z,73.00
2018-03-01T06:37:34.256Z,72.57
2018-03-01T06:40:02.551Z,72.36
2018-03-01T06:42:30.924Z,72.55
2018-03-01T06:44:59.220Z,72.65
2018-03-01T06:47:27.783Z,72.63
2018-03-01T06:49:56.087Z,72.40
2018-03-01T06:52:24.647Z,71.44
2018-03-01T06:54:53.023Z,71.85
2018-03-01T06:57:21.349Z,71.67
2018-03-01T06:59:49.680Z,71.82
2018-03-01T07:02:18.376Z,71.69
2018-03-01T07:04:46.667Z,72.08
2018-03-01T07:07:14.986Z,71.71
2018-03-01T07:09:43.414Z,71.48
2018-03-01T07:12:11.787Z,71.27
2018-03-01T07:14:40.239Z,70.72
2018-03-01T07:17:08.564Z,71.32
2018-03-01T07:19:36.932Z,70.64
2018-03-01T07:22:05.334Z,70.31
2018-03-01T07:24:33.697Z,70.25
2018-03-01T07:27:02.099Z,69.79
2018-03-01T07:29:30.533Z,69.28
2018-03-01T07:31:58.864Z,69.21
2018-03-01T07:34:27.379Z,67.44
2018-03-01T07:36:55.723Z,67.67
2018-03-01T07:39:24.034Z,67.19
2018-03-01T07:41:52.376Z,65.94
2018-03-01T07:44:20.906Z,67.43
2018-03-01T07:46:49.280Z,67.18
2018-03-01T07:49:17.559Z,67.03
2018-03-01T07:51:45.847Z,66.66
2018-03-01T07:54:14.296Z,66.80
2018-03-01T07:56:42.603Z,66.83
2018-03-01T07:59:11.589Z,66.38
2018-03-01T08:01:39.935Z,64.98
2018-03-01T08:04:08.219Z,64.86
2018-03-01T08:06:36.567Z,64.51
2018-03-01T08:09:05.633Z,64.48
2018-03-01T08:11:33.976Z,64.08
2018-03-01T08:14:02.390Z,63.25
2018-03-01T08:16:30.784Z,62.66
2018-03-01T08:18:59.114Z,63.29
2018-03-01T08:21:27.469Z,62.78
2018-03-01T08:23:55.775Z,61.90
2018-03-01T08:26:24.771Z,60.83
2018-03-01T08:28:53.560Z,61.31
2018-03-01T08:31:21.917Z,59.97
2018-03-01T08:33:50.231Z,59.12
2018-03-01T08:36:18.554Z,59.81
2018-03-01T08:38:46.886Z,60.12
2018-03-01T08:41:15.390Z,58.72
2018-03-01T08:43:43.871Z,59.28
2018-03-01T08:46:12.183Z,59.44
2018-03-01T08:48:40.831Z,58.26
2018-03-01T08:51:09.288Z,58.38
2018-03-01T08:53:37.979Z,57.91
2018-03-01T08:56:06.314Z,56.53
2018-03-01T08:58:34.811Z,57.08
2018-03-01T09:01:03.102Z,57.07
2018-03-01T09:03:31.391Z,56.07
2018-03-01T09:06:00.100Z,56.06
2018-03-01T09:08:28.419Z,55.43
2018-03-01T09:10:57.049Z,55.54
2018-03-01T09:13:25.886Z,54.87
2018-03-01T09:15:54.285Z,53.97
2018-03-01T09:18:22.638Z,55.51
2018-03-01T09:20:51.040Z,55.19
2018-03-01T09:23:19.406Z,53.99
2018-03-01T09:25:47.718Z,53.82
2018-03-01T09:28:16.067Z,53.82
2018-03-01T09:30:44.406Z,53.55
2018-03-01T09:33:12.791Z,53.95
2018-03-01T09:35:41.147Z,53.28
2018-03-01T09:38:09.502Z,53.41
2018-03-01T09:40:38.011Z,52.21
2018-03-01T09:43:07.486Z,51.33
2018-03-01T09:45:35.815Z,51.10
2018-03-01T09:48:04.084Z,51.06
2018-03-01T09:50:32.415Z,51.59
2018-03-01T09:53:00.700Z,51.05
2018-03-01T09:55:29.023Z,51.17
2018-03-01T09:57:57.377Z,51.24
2018-03-01T10:00:25.716Z,49.09
2018-03-01T10:02:54.214Z,50.57
2018-03-01T10:05:22.526Z,51.31
2018-03-01T10:07:51.140Z,50.47
2018-03-01T10:10:19.442Z,49.08
2018-03-01T10:12:47.819Z,49.90
2018-03-01T10:15:16.297Z,48.76
2018-03-01T10:17:44.600Z,50.43
2018-03-01T10:20:13.227Z,48.78
2018-03-01T10:22:42.541Z,47.39
2018-03-01T10:25:10.982Z,47.12
2018-03-01T10:27:40.189Z,46.65
2018-03-01T10:30:08.567Z,46.68
2018-03-01T10:32:36.978Z,47.38
2018-03-01T10:35:05.307Z,45.93
2018-03-01T10:37:33.654Z,45.46
2018-03-01T10:40:01.899Z,45.07
2018-03-01T10:42:30.248Z,46.16
2018-03-01T10:44:58.679Z,45.42
2018-03-01T10:47:27.016Z,44.73
2018-03-01T10:49:55.310Z,46.22
2018-03-01T10:52:23.723Z,45.08
2018-03-01T10:54:52.052Z,43.89
2018-03-01T10:57:20.387Z,43.15
2018-03-01T10:59:48.699Z,42.00
2018-03-01T11:02:17.244Z,43.04
2018-03-01T11:04:45.556Z,41.55
2018-03-01T11:07:13.983Z,41.98
2018-03-01T11:09:42.420Z,40.80
2018-03-01T11:12:10.735Z,40.96
2018-03-01T11:14:39.883Z,37.61
2018-03-01T11:17:08.199Z,37.96
2018-03-01T11:19:36.543Z,38.17
2018-03-01T11:22:04.931Z,36.26
2018-03-01T11:24:34.209Z,37.37
2018-03-01T11:27:02.573Z,37.76
2018-03-01T11:29:30.937Z,34.40
2018-03-01T11:31:59.350Z,35.02
2018-03-01T11:34:27.630Z,33.14
2018-03-01T11:36:56.121Z,34.58
2018-03-01T11:39:24.600Z,36.90
2018-03-01T11:41:52.942Z,33.06
2018-03-01T11:44:21.579Z,32.80
2018-03-01T11:46:49.887Z,35.06
2018-03-01T11:49:18.183Z,32.30
2018-03-01T11:51:46.723Z,32.65
2018-03-01T11:54:15.023Z,31.63
2018-03-01T11:56:43.363Z,31.80
2018-03-01T11:59:11.904Z,32.84
2018-03-01T12:01:40.227Z,33.37
2018-03-01T12:04:08.538Z,31.72
2018-03-01T12:06:37.055Z,33.86
2018-03-01T12:09:06.358Z,35.79
2018-03-01T12:11:35.464Z,32.59
2018-03-01T12:14:03.955Z,33.47
2018-03-01T12:16:32.331Z,30.62
2018-03-01T12:19:00.667Z,29.46
2018-03-01T12:21:29.020Z,32.54
2018-03-01T12:23:57.566Z,31.32
2018-03-01T12:26:26.212Z,29.57
2018-03-01T12:28:54.575Z,29.30
2018-03-01T12:31:23.298Z,31.21
2018-03-01T12:33:51.616Z,34.13
2018-03-01T12:36:19.968Z,36.63
2018-03-01T12:38:48.264Z,39.24
2018-03-01T12:41:16.764Z,37.93
2018-03-01T12:43:45.223Z,36.04
2018-03-01T12:46:13.558Z,34.32
2018-03-01T12:48:42.320Z,34.85
2018-03-01T12:51:10.659Z,36.80
2018-03-01T12:53:38.942Z,38.64
2018-03-01T12:56:07.284Z,35.09
2018-03-01T12:58:35.600Z,33.82
2018-03-01T13:01:04.227Z,30.90
2018-03-01T13:03:32.791Z,30.65
2018-03-01T13:06:01.119Z,32.71
2018-03-01T13:08:29.836Z,30.29
2018-03-01T13:10:58.179Z,31.32
2018-03-01T13:13:26.703Z,35.02
2018-03-01T13:15:55.053Z,35.67
2018-03-01T13:18:23.392Z,34.60
2018-03-01T13:20:51.742Z,32.86
2018-03-01T13:23:20.148Z,33.56
2018-03-01T13:25:48.561Z,32.35
2018-03-01T13:28:16.875Z,31.06
2018-03-01T13:30:45.419Z,30.93
2018-03-01T13:33:14.098Z,32.63
2018-03-01T13:35:42.515Z,32.11
2018-03-01T13:38:12.595Z,29.86
2018-03-01T13:40:41.051Z,28.30
2018-03-01T13:43:09.685Z,27.83
2018-03-01T13:45:38.023Z,29.15
2018-03-01T13:48:07.840Z,33.65
2018-03-01T13:50:36.155Z,33.07
2018-03-01T13:53:04.483Z,32.13
2018-03-01T13:55:32.827Z,34.29
2018-03-01T13:58:01.186Z,37.49
2018-03-01T14:00:29.744Z,40.88
2018-03-01T14:02:58.309Z,42.53
2018-03-01T14:05:26.644Z,41.82
2018-03-01T14:07:54.971Z,43.15
2018-03-01T14:10:23.379Z,42.80
2018-03-01T14:12:51.687Z,44.31
2018-03-01T14:15:20.196Z,43.25
2018-03-01T14:17:48.943Z,44.12
2018-03-01T14:20:17.754Z,45.05
2018-03-01T14:22:46.215Z,43.76
2018-03-01T14:25:14.624Z,43.80
2018-03-01T14:27:43.018Z,44.67
2018-03-01T14:30:11.907Z,45.03
2018-03-01T14:32:40.319Z,45.29
2018-03-01T14:35:08.739Z,45.86
2018-03-01T14:37:37.026Z,45.62
2018-03-01T14:40:05.530Z,45.34
2018-03-01T14:42:33.819Z,46.22
2018-03-01T14:45:02.100Z,45.49
2018-03-01T14:47:30.512Z,45.44
2018-03-01T14:49:58.808Z,45.66
2018-03-01T14:52:27.173Z,45.50
2018-03-01T14:54:56.414Z,45.19
2018-03-01T14:57:25.167Z,45.64
2018-03-01T14:59:53.479Z,46.06
2018-03-01T15:02:22.215Z,45.63
2018-03-01T15:04:50.535Z,46.02
2018-03-01T15:07:19.215Z,46.95
2018-03-01T15:09:48.234Z,46.93
2018-03-01T15:12:16.816Z,46.84
2018-03-01T15:14:45.111Z,46.67
2018-03-01T15:17:13.418Z,45.92
2018-03-01T15:19:41.775Z,46.57
2018-03-01T15:22:10.167Z,46.29
2018-03-01T15:24:38.483Z,47.04
2018-03-01T15:27:06.843Z,46.89
2018-03-01T15:29:35.148Z,46.78
2018-03-01T15:32:03.683Z,47.77
2018-03-01T15:34:32.664Z,47.42
2018-03-01T15:37:01.028Z,47.66
2018-03-01T15:39:29.564Z,47.90
2018-03-01T15:41:58.004Z,47.83
2018-03-01T15:44:26.339Z,47.55
2018-03-01T15:46:54.760Z,47.86
2018-03-01T15:49:23.069Z,48.12
2018-03-01T15:51:51.383Z,48.40
2018-03-01T15:54:19.726Z,48.49
2018-03-01T15:56:48.119Z,48.43
2018-03-01T15:59:16.547Z,48.58
2018-03-01T16:01:44.852Z,48.99
2018-03-01T16:04:13.642Z,49.38
2018-03-01T16:06:42.621Z,49.44
2018-03-01T16:09:11.086Z,49.70
2018-03-01T16:11:39.405Z,49.82
2018-03-01T16:14:07.711Z,49.36
2018-03-01T16:16:36.053Z,50.25
2018-03-01T16:19:04.878Z,50.27
2018-03-01T16:21:34.126Z,50.12
2018-03-01T16:24:02.739Z,50.38
2018-03-01T16:26:31.112Z,49.85
2018-03-01T16:28:59.415Z,50.42
2018-03-01T16:31:27.762Z,50.04
2018-03-01T16:33:56.854Z,50.87
2018-03-01T16:36:25.206Z,50.82
2018-03-01T16:38:53.517Z,51.21
2018-03-01T16:41:21.925Z,50.71
2018-03-01T16:43:50.580Z,50.97
2018-03-01T16:46:19.140Z,51.36
2018-03-01T16:48:47.743Z,51.79
2018-03-01T16:51:16.120Z,51.97
2018-03-01T16:53:44.521Z,52.02
2018-03-01T16:56:12.843Z,52.40
2018-03-01T16:58:41.191Z,52.25
2018-03-01T17:01:09.610Z,52.71
2018-03-01T17:03:37.959Z,52.72
2018-03-01T17:06:06.663Z,52.76
2018-03-01T17:08:35.044Z,52.61
2018-03-01T17:11:03.644Z,52.70
2018-03-01T17:13:32.025Z,53.04
2018-03-01T17:16:00.369Z,52.98
2018-03-01T17:18:28.694Z,53.29
2018-03-01T17:20:57.183Z,53.38
2018-03-01T17:23:25.506Z,53.37
2018-03-01T17:25:53.836Z,53.28
2018-03-01T17:28:22.141Z,53.40
2018-03-01T17:30:50.947Z,52.99
2018-03-01T17:33:19.332Z,53.46
2018-03-01T17:35:47.871Z,53.34
2018-03-01T17:38:16.514Z,53.36
2018-03-01T17:40:44.863Z,53.64
2018-03-01T17:43:13.152Z,53.71
2018-03-01T17:45:41.495Z,54.02
2018-03-01T17:48:09.821Z,54.25
2018-03-01T17:50:38.169Z,54.46
2018-03-01T17:53:07.403Z,54.63
2018-03-01T17:55:35.740Z,54.34
2018-03-01T17:58:04.106Z,54.59
2018-03-01T18:00:32.479Z,54.54
2018-03-01T18:03:00.787Z,54.41
2018-03-01T18:05:29.772Z,54.76
2018-03-01T18:07:59.091Z,54.48
2018-03-01T18:10:28.215Z,54.75
2018-03-01T18:12:58.342Z,54.97
2018-03-01T18:15:27.404Z,54.86
2018-03-01T18:17:55.789Z,54.92
2018-03-01T18:20:24.185Z,54.83
2018-03-01T18:22:52.923Z,55.29
2018-03-01T18:25:21.387Z,55.63
2018-03-01T18:27:49.895Z,55.59
2018-03-01T18:30:18.395Z,55.59
2018-03-01T18:32:46.708Z,55.87
2018-03-01T18:35:15.028Z,55.90
2018-03-01T18:37:43.484Z,55.59
2018-03-01T18:40:12.051Z,55.95
2018-03-01T18:42:40.423Z,55.86
2018-03-01T18:45:08.729Z,56.15
2018-03-01T18:47:37.053Z,56.08
2018-03-01T18:50:05.413Z,55.77
2018-03-01T18:52:34.559Z,55.88
2018-03-01T18:55:02.996Z,56.07
2018-03-01T18:57:31.906Z,55.97
2018-03-01T19:00:00.346Z,56.41
2018-03-01T19:02:28.850Z,56.24
2018-03-01T19:04:57.495Z,56.12
2018-03-01T19:07:25.900Z,56.33
2018-03-01T19:09:54.233Z,56.12
2018-03-01T19:12:22.600Z,56.18
2018-03-01T19:14:50.880Z,56.73
2018-03-01T19:17:19.184Z,56.57
2018-03-01T19:19:47.675Z,56.60
2018-03-01T19:22:16.205Z,56.59
2018-03-01T19:24:44.592Z,56.85
2018-03-01T19:27:12.939Z,56.80
2018-03-01T19:29:42.141Z,56.76
2018-03-01T19:32:10.644Z,56.92
2018-03-01T19:34:40.103Z,57.03
2018-03-01T19:37:08.804Z,57.09
2018-03-01T19:39:37.868Z,57.29
2018-03-01T19:42:06.445Z,57.36
2018-03-01T19:44:34.759Z,57.42
2018-03-01T19:47:03.063Z,57.21
2018-03-01T19:49:31.440Z,57.71
2018-03-01T19:51:59.763Z,57.68
2018-03-01T19:54:28.167Z,57.91
2018-03-01T19:56:57.447Z,57.84
2018-03-01T19:59:25.986Z,58.11
2018-03-01T20:01:55.794Z,57.99
2018-03-01T20:04:24.376Z,58.27
2018-03-01T20:06:52.772Z,58.36
2018-03-01T20:09:21.105Z,58.33
2018-03-01T20:11:49.579Z,58.10
2018-03-01T20:14:18.022Z,58.53
2018-03-01T20:16:46.350Z,58.33
2018-03-01T20:19:14.663Z,58.65
2018-03-01T20:21:43.331Z,58.78
2018-03-01T20:24:12.115Z,58.40
2018-03-01T20:26:40.776Z,58.77
2018-03-01T20:29:09.321Z,58.93
2018-03-01T20:31:38.174Z,58.42
2018-03-01T20:34:07.094Z,59.04
2018-03-01T20:36:35.511Z,58.90
2018-03-01T20:39:03.877Z,59.21
2018-03-01T20:41:32.565Z,59.34
2018-03-01T20:44:01.070Z,59.56
2018-03-01T20:46:29.570Z,59.59
2018-03-01T20:48:58.307Z,59.04
2018-03-01T20:51:27.114Z,59.38
2018-03-01T20:53:55.964Z,59.64
2018-03-01T20:56:24.370Z,59.57
2018-03-01T20:58:52.740Z,59.66
2018-03-01T21:01:21.126Z,59.97
2018-03-01T21:03:49.742Z,59.92
2018-03-01T21:06:18.167Z,60.34
2018-03-01T21:08:46.632Z,60.21
2018-03-01T21:11:15.079Z,60.44
2018-03-01T21:13:43.485Z,60.03
2018-03-01T21:16:11.835Z,60.57
2018-03-01T21:18:40.155Z,60.26
2018-03-01T21:21:08.604Z,60.64
2018-03-01T21:23:37.022Z,60.46
2018-03-01T21:26:05.471Z,60.72
2018-03-01T21:28:33.857Z,60.96
2018-03-01T21:31:03.223Z,60.71
2018-03-01T21:33:31.622Z,60.98
2018-03-01T21:36:00.295Z,60.80
2018-03-01T21:38:28.599Z,61.22
2018-03-01T21:40:56.955Z,61.28
2018-03-01T21:43:25.756Z,61.51
2018-03-01T21:45:54.150Z,61.28
2018-03-01T21:48:22.485Z,61.56
2018-03-01T21:50:50.968Z,61.68
2018-03-01T21:53:19.446Z,61.75
2018-03-01T21:55:47.824Z,61.63
2018-03-01T21:58:16.171Z,61.73
2018-03-01T22:00:44.502Z,62.04
2018-03-01T22:03:12.952Z,61.79
2018-03-01T22:05:41.403Z,62.00
2018-03-01T22:08:09.752Z,62.11
2018-03-01T22:10:38.200Z,61.50
2018-03-01T22:13:06.852Z,61.63
2018-03-01T22:15:35.187Z,62.15
2018-03-01T22:18:03.773Z,62.38
2018-03-01T22:20:32.119Z,62.92
2018-03-01T22:23:00.470Z,62.61
2018-03-01T22:25:29.082Z,63.15
2018-03-01T22:27:57.390Z,62.72
2018-03-01T22:30:25.754Z,63.37
2018-03-01T22:32:54.108Z,63.57
2018-03-01T22:35:22.426Z,63.45
2018-03-01T22:37:50.740Z,63.13
2018-03-01T22:40:19.130Z,63.35
2018-03-01T22:42:47.420Z,63.27
2018-03-01T22:45:15.779Z,63.45
2018-03-01T22:47:44.102Z,63.90
2018-03-01T22:50:12.451Z,63.33
2018-03-01T22:52:41.170Z,63.74
2018-03-01T22:55:09.632Z,63.65
2018-03-01T22:57:37.967Z,63.54
2018-03-01T23:00:06.314Z,63.49
2018-03-01T23:02:34.965Z,63.20
2018-03-01T23:05:03.266Z,63.79
2018-03-01T23:07:31.608Z,64.10
2018-03-01T23:10:00.068Z,64.07
2018-03-01T23:12:28.498Z,64.07
2018-03-01T23:14:56.904Z,64.07
2018-03-01T23:17:25.335Z,63.86
2018-03-01T23:19:53.648Z,64.20
2018-03-01T23:22:22.092Z,63.43
2018-03-01T23:24:50.384Z,63.70
2018-03-01T23:27:18.853Z,63.62
2018-03-01T23:29:47.147Z,64.26
2018-03-01T23:32:15.603Z,64.33
2018-03-01T23:34:43.926Z,64.33
2018-03-01T23:37:12.247Z,64.15
2018-03-01T23:39:40.588Z,64.32
2018-03-01T23:42:09.090Z,63.93
2018-03-01T23:44:37.429Z,64.19
2018-03-01T23:47:05.760Z,64.42
2018-03-01T23:49:34.319Z,64.02
2018-03-01T23:52:02.636Z,63.56
2018-03-01T23:54:31.084Z,64.07
2018-03-01T23:56:59.441Z,64.14
2018-03-01T23:59:27.755Z,64.32
